sensor_id;sensor_type;location;lat;lon;timestamp;pressure;altitude;pressure_sealevel;temperature;humidity
24666;BME280;29726;53.532;-1.478;2023-04-06T00:02:00;100149.84;;;15.42;100.00
24666;BME280;29726;53.532;-1.478;2023-04-06T00:04:56;100137.78;;;15.42;100.00
24666;BME280;29726;53.532;-1.478;2023-04-06T00:07:45;100139.06;;;15.41;100.00
24666;BME280;29726;53.532;-1.478;2023-04-06T00:10:35;100143.44;;;15.42;100.00
24666;BME280;29726;53.532;-1.478;2023-04-06T00:13:23;100136.25;;;15.41;100.00
24666;BME280;29726;53.532;-1.478;2023-04-06T00:16:14;100134.22;;;15.41;100.00
24666;BME280;29726;53.532;-1.478;2023-04-06T00:19:01;100134.72;;;15.40;100.00
24666;BME280;29726;53.532;-1.478;2023-04-06T00:21:47;100129.88;;;15.40;100.00
24666;BME280;29726;53.532;-1.478;2023-04-06T00:24:35;100121.19;;;15.38;100.00
24666;BME280;29726;53.532;-1.478;2023-04-06T00:27:25;100124.00;;;15.38;100.00
24666;BME280;29726;53.532;-1.478;2023-04-06T00:30:20;100128.34;;;15.39;100.00
24666;BME280;29726;53.532;-1.478;2023-04-06T00:33:37;100115.31;;;15.36;100.00
24666;BME280;29726;53.532;-1.478;2023-04-06T00:36:24;100117.59;;;15.38;100.00
24666;BME280;29726;53.532;-1.478;2023-04-06T00:39:18;100111.72;;;15.36;100.00
24666;BME280;29726;53.532;-1.478;2023-04-06T00:42:13;100098.41;;;15.31;100.00
24666;BME280;29726;53.532;-1.478;2023-04-06T00:44:59;100097.91;;;15.32;100.00
24666;BME280;29726;53.532;-1.478;2023-04-06T00:47:48;100098.94;;;15.35;100.00
24666;BME280;29726;53.532;-1.478;2023-04-06T00:51:08;100099.72;;;15.35;100.00
24666;BME280;29726;53.532;-1.478;2023-04-06T00:54:14;100088.97;;;15.34;100.00
24666;BME280;29726;53.532;-1.478;2023-04-06T00:57:16;100085.41;;;15.33;100.00
24666;BME280;29726;53.532;-1.478;2023-04-06T01:00:03;100088.22;;;15.33;100.00
24666;BME280;29726;53.532;-1.478;2023-04-06T01:03:07;100083.84;;;15.32;100.00
24666;BME280;29726;53.532;-1.478;2023-04-06T01:06:16;100077.19;;;15.30;100.00
24666;BME280;29726;53.532;-1.478;2023-04-06T01:09:09;100076.19;;;15.33;100.00
24666;BME280;29726;53.532;-1.478;2023-04-06T01:12:07;100073.88;;;15.31;100.00
24666;BME280;29726;53.532;-1.478;2023-04-06T01:14:53;100072.31;;;15.30;100.00
24666;BME280;29726;53.532;-1.478;2023-04-06T01:17:57;100068.75;;;15.30;100.00
24666;BME280;29726;53.532;-1.478;2023-04-06T01:20:44;100036.50;;;15.09;100.00
24666;BME280;29726;53.532;-1.478;2023-04-06T01:23:35;100052.63;;;15.25;100.00
24666;BME280;29726;53.532;-1.478;2023-04-06T01:26:29;100052.38;;;15.28;100.00
24666;BME280;29726;53.532;-1.478;2023-04-06T01:29:30;100061.59;;;15.29;100.00
24666;BME280;29726;53.532;-1.478;2023-04-06T01:32:23;100041.63;;;15.21;100.00
24666;BME280;29726;53.532;-1.478;2023-04-06T01:35:21;100043.94;;;15.28;100.00
24666;BME280;29726;53.532;-1.478;2023-04-06T01:38:13;100040.34;;;15.28;100.00
24666;BME280;29726;53.532;-1.478;2023-04-06T01:40:59;100029.34;;;15.24;100.00
24666;BME280;29726;53.532;-1.478;2023-04-06T01:43:49;100039.56;;;15.27;100.00
24666;BME280;29726;53.532;-1.478;2023-04-06T01:46:42;100020.41;;;15.26;100.00
24666;BME280;29726;53.532;-1.478;2023-04-06T01:49:31;100017.09;;;15.22;100.00
24666;BME280;29726;53.532;-1.478;2023-04-06T01:52:30;100021.94;;;15.27;100.00
24666;BME280;29726;53.532;-1.478;2023-04-06T01:55:24;100003.53;;;15.20;100.00
24666;BME280;29726;53.532;-1.478;2023-04-06T01:58:13;100013.25;;;15.25;100.00
24666;BME280;29726;53.532;-1.478;2023-04-06T02:01:30;100017.09;;;15.22;100.00
24666;BME280;29726;53.532;-1.478;2023-04-06T02:04:16;100020.41;;;15.26;100.00
24666;BME280;29726;53.532;-1.478;2023-04-06T02:07:04;100000.22;;;15.16;100.00
24666;BME280;29726;53.532;-1.478;2023-04-06T02:10:03;100006.59;;;15.22;100.00
24666;BME280;29726;53.532;-1.478;2023-04-06T02:12:50;99997.16;;;15.20;100.00
24666;BME280;29726;53.532;-1.478;2023-04-06T02:15:41;99998.94;;;15.23;100.00
24666;BME280;29726;53.532;-1.478;2023-04-06T02:18:39;99987.69;;;15.23;100.00
24666;BME280;29726;53.532;-1.478;2023-04-06T02:21:33;99984.09;;;15.22;100.00
24666;BME280;29726;53.532;-1.478;2023-04-06T02:24:49;99980.00;;;15.23;100.00
24666;BME280;29726;53.532;-1.478;2023-04-06T02:27:40;99965.44;;;15.14;100.00
24666;BME280;29726;53.532;-1.478;2023-04-06T02:30:26;99977.72;;;15.22;100.00
24666;BME280;29726;53.532;-1.478;2023-04-06T02:33:14;99973.38;;;15.21;100.00
24666;BME280;29726;53.532;-1.478;2023-04-06T02:36:01;99972.59;;;15.20;100.00
24666;BME280;29726;53.532;-1.478;2023-04-06T02:38:51;99951.91;;;15.12;100.00
24666;BME280;29726;53.532;-1.478;2023-04-06T02:41:40;99964.94;;;15.21;100.00
24666;BME280;29726;53.532;-1.478;2023-04-06T02:44:30;99958.53;;;15.20;100.00
24666;BME280;29726;53.532;-1.478;2023-04-06T02:47:19;99956.50;;;15.21;100.00
24666;BME280;29726;53.532;-1.478;2023-04-06T02:50:28;99959.31;;;15.21;100.00
24666;BME280;29726;53.532;-1.478;2023-04-06T02:53:20;99951.38;;;15.19;100.00
24666;BME280;29726;53.532;-1.478;2023-04-06T02:56:14;99922.53;;;14.97;100.00
24666;BME280;29726;53.532;-1.478;2023-04-06T02:59:12;99959.81;;;15.19;100.00
24666;BME280;29726;53.532;-1.478;2023-04-06T03:02:04;99964.16;;;15.20;100.00
24666;BME280;29726;53.532;-1.478;2023-04-06T03:05:09;99967.47;;;15.19;100.00
24666;BME280;29726;53.532;-1.478;2023-04-06T03:08:03;99956.22;;;15.19;100.00
24666;BME280;29726;53.532;-1.478;2023-04-06T03:10:59;99949.06;;;15.18;100.00
24666;BME280;29726;53.532;-1.478;2023-04-06T03:14:07;99951.63;;;15.16;100.00
24666;BME280;29726;53.532;-1.478;2023-04-06T03:16:55;99948.81;;;15.16;100.00
24666;BME280;29726;53.532;-1.478;2023-04-06T03:19:53;99947.03;;;15.18;100.00
24666;BME280;29726;53.532;-1.478;2023-04-06T03:22:47;99938.59;;;15.18;100.00
24666;BME280;29726;53.532;-1.478;2023-04-06T03:25:42;99903.84;;;14.94;100.00
24666;BME280;29726;53.532;-1.478;2023-04-06T03:28:36;99935.00;;;15.18;100.00
24666;BME280;29726;53.532;-1.478;2023-04-06T03:31:40;99929.38;;;15.18;100.00
24666;BME280;29726;53.532;-1.478;2023-04-06T03:34:26;99921.47;;;15.16;100.00
24666;BME280;29726;53.532;-1.478;2023-04-06T03:37:13;99920.97;;;15.18;100.00
24666;BME280;29726;53.532;-1.478;2023-04-06T03:40:12;99920.97;;;15.18;100.00
24666;BME280;29726;53.532;-1.478;2023-04-06T03:43:04;99922.25;;;15.17;100.00
24666;BME280;29726;53.532;-1.478;2023-04-06T03:45:57;99920.47;;;15.14;100.00
24666;BME280;29726;53.532;-1.478;2023-04-06T03:48:48;99916.38;;;15.15;100.00
24666;BME280;29726;53.532;-1.478;2023-04-06T03:51:49;99928.63;;;15.17;100.00
24666;BME280;29726;53.532;-1.478;2023-04-06T03:54:59;99921.47;;;15.16;100.00
24666;BME280;29726;53.532;-1.478;2023-04-06T03:57:52;99920.22;;;15.17;100.00
24666;BME280;29726;53.532;-1.478;2023-04-06T04:00:36;99906.16;;;15.12;100.00
24666;BME280;29726;53.532;-1.478;2023-04-06T04:03:30;99919.44;;;15.17;100.00
24666;BME280;29726;53.532;-1.478;2023-04-06T04:06:42;99902.56;;;15.17;100.00
24666;BME280;29726;53.532;-1.478;2023-04-06T04:09:31;99894.41;;;15.13;100.00
24666;BME280;29726;53.532;-1.478;2023-04-06T04:12:23;99899.00;;;15.16;100.00
24666;BME280;29726;53.532;-1.478;2023-04-06T04:15:32;99892.59;;;15.16;100.00
24666;BME280;29726;53.532;-1.478;2023-04-06T04:18:20;99878.81;;;15.12;100.00
24666;BME280;29726;53.532;-1.478;2023-04-06T04:21:09;99886.22;;;15.15;100.00
24666;BME280;29726;53.532;-1.478;2023-04-06T04:23:58;99891.84;;;15.15;100.00
24666;BME280;29726;53.532;-1.478;2023-04-06T04:26:56;99890.31;;;15.14;100.00
24666;BME280;29726;53.532;-1.478;2023-04-06T04:29:52;99897.97;;;15.14;100.00
24666;BME280;29726;53.532;-1.478;2023-04-06T04:32:38;99896.44;;;15.13;100.00
24666;BME280;29726;53.532;-1.478;2023-04-06T04:35:27;99888.78;;;15.13;100.00
24666;BME280;29726;53.532;-1.478;2023-04-06T04:38:13;99888.78;;;15.08;100.00
24666;BME280;29726;53.532;-1.478;2023-04-06T04:41:00;99884.69;;;15.09;100.00
24666;BME280;29726;53.532;-1.478;2023-04-06T04:44:00;99877.78;;;15.10;100.00
24666;BME280;29726;53.532;-1.478;2023-04-06T04:46:53;99897.97;;;15.14;100.00
24666;BME280;29726;53.532;-1.478;2023-04-06T04:49:41;99894.16;;;15.11;100.00
24666;BME280;29726;53.532;-1.478;2023-04-06T04:52:27;99879.31;;;15.05;100.00
24666;BME280;29726;53.532;-1.478;2023-04-06T04:55:26;99888.53;;;15.11;100.00
24666;BME280;29726;53.532;-1.478;2023-04-06T04:58:17;99891.34;;;15.11;100.00
24666;BME280;29726;53.532;-1.478;2023-04-06T05:01:09;99883.66;;;15.12;100.00
24666;BME280;29726;53.532;-1.478;2023-04-06T05:04:13;99881.38;;;15.10;100.00
24666;BME280;29726;53.532;-1.478;2023-04-06T05:07:06;99873.44;;;15.03;100.00
24666;BME280;29726;53.532;-1.478;2023-04-06T05:10:00;99877.78;;;15.10;100.00
24666;BME280;29726;53.532;-1.478;2023-04-06T05:12:53;99882.13;;;15.11;100.00
24666;BME280;29726;53.532;-1.478;2023-04-06T05:15:41;99868.06;;;15.05;100.00
24666;BME280;29726;53.532;-1.478;2023-04-06T05:18:31;99872.94;;;15.05;100.00
24666;BME280;29726;53.532;-1.478;2023-04-06T05:21:18;99880.59;;;15.10;100.00
24666;BME280;29726;53.532;-1.478;2023-04-06T05:24:05;99881.63;;;15.12;100.00
24666;BME280;29726;53.532;-1.478;2023-04-06T05:26:50;99871.66;;;15.11;100.00
24666;BME280;29726;53.532;-1.478;2023-04-06T05:29:45;99878.81;;;15.12;100.00
24666;BME280;29726;53.532;-1.478;2023-04-06T05:32:31;99878.03;;;15.12;100.00
24666;BME280;29726;53.532;-1.478;2023-04-06T05:35:18;99883.66;;;15.12;100.00
24666;BME280;29726;53.532;-1.478;2023-04-06T05:38:16;99883.16;;;15.13;100.00
24666;BME280;29726;53.532;-1.478;2023-04-06T05:41:27;99873.94;;;15.13;100.00
24666;BME280;29726;53.532;-1.478;2023-04-06T05:44:14;99871.91;;;15.13;100.00
24666;BME280;29726;53.532;-1.478;2023-04-06T05:47:09;99868.31;;;15.13;100.00
24666;BME280;29726;53.532;-1.478;2023-04-06T05:50:16;99864.22;;;15.14;100.00
24666;BME280;29726;53.532;-1.478;2023-04-06T05:53:05;99867.81;;;15.09;100.00
24666;BME280;29726;53.532;-1.478;2023-04-06T05:55:51;99869.09;;;15.13;100.00
24666;BME280;29726;53.532;-1.478;2023-04-06T05:58:42;99855.78;;;15.14;100.00
24666;BME280;29726;53.532;-1.478;2023-04-06T06:01:47;99852.22;;;15.08;100.00
24666;BME280;29726;53.532;-1.478;2023-04-06T06:04:50;99871.38;;;15.15;100.00
24666;BME280;29726;53.532;-1.478;2023-04-06T06:07:45;99845.34;;;15.03;100.00
24666;BME280;29726;53.532;-1.478;2023-04-06T06:10:34;99845.31;;;15.09;100.00
24666;BME280;29726;53.532;-1.478;2023-04-06T06:13:23;99856.81;;;15.11;100.00
24666;BME280;29726;53.532;-1.478;2023-04-06T06:16:09;99860.91;;;15.15;100.00
24666;BME280;29726;53.532;-1.478;2023-04-06T06:19:12;99866.53;;;15.15;100.00
24666;BME280;29726;53.532;-1.478;2023-04-06T06:21:59;99867.56;;;15.12;100.00
24666;BME280;29726;53.532;-1.478;2023-04-06T06:25:10;99862.69;;;15.13;100.00
24666;BME280;29726;53.532;-1.478;2023-04-06T06:27:56;99855.53;;;15.12;100.00
24666;BME280;29726;53.532;-1.478;2023-04-06T06:31:07;99857.56;;;15.17;100.00
24666;BME280;29726;53.532;-1.478;2023-04-06T06:34:17;99859.63;;;15.11;100.00
24666;BME280;29726;53.532;-1.478;2023-04-06T06:37:26;99849.41;;;15.08;100.00
24666;BME280;29726;53.532;-1.478;2023-04-06T06:40:22;99866.53;;;15.15;100.00
24666;BME280;29726;53.532;-1.478;2023-04-06T06:43:20;99862.44;;;15.16;100.00
24666;BME280;29726;53.532;-1.478;2023-04-06T06:46:25;99858.84;;;15.16;100.00
24666;BME280;29726;53.532;-1.478;2023-04-06T06:49:09;99834.63;;;14.97;100.00
24666;BME280;29726;53.532;-1.478;2023-04-06T06:52:03;99868.06;;;15.11;100.00
24666;BME280;29726;53.532;-1.478;2023-04-06T06:55:13;99887.22;;;15.18;100.00
24666;BME280;29726;53.532;-1.478;2023-04-06T06:58:23;99880.59;;;15.15;100.00
24666;BME280;29726;53.532;-1.478;2023-04-06T07:01:08;99892.09;;;15.17;100.00
24666;BME280;29726;53.532;-1.478;2023-04-06T07:04:01;99900.00;;;15.19;100.00
24666;BME280;29726;53.532;-1.478;2023-04-06T07:07:07;99906.41;;;15.19;100.00
24666;BME280;29726;53.532;-1.478;2023-04-06T07:09:59;99914.06;;;15.19;100.00
24666;BME280;29726;53.532;-1.478;2023-04-06T07:12:49;99913.56;;;15.20;100.00
24666;BME280;29726;53.532;-1.478;2023-04-06T07:15:41;99904.38;;;15.20;100.00
24666;BME280;29726;53.532;-1.478;2023-04-06T07:18:29;99914.34;;;15.21;100.00
24666;BME280;29726;53.532;-1.478;2023-04-06T07:21:27;99897.97;;;15.19;100.00
24666;BME280;29726;53.532;-1.478;2023-04-06T07:24:30;99913.56;;;15.20;100.00
24666;BME280;29726;53.532;-1.478;2023-04-06T07:27:37;99909.47;;;15.16;100.00
24666;BME280;29726;53.532;-1.478;2023-04-06T07:30:31;99917.91;;;15.21;100.00
24666;BME280;29726;53.532;-1.478;2023-04-06T07:33:48;99918.69;;;15.22;100.00
24666;BME280;29726;53.532;-1.478;2023-04-06T07:36:39;99915.63;;;15.20;100.00
24666;BME280;29726;53.532;-1.478;2023-04-06T07:39:38;99916.13;;;15.18;100.00
24666;BME280;29726;53.532;-1.478;2023-04-06T07:42:27;99916.88;;;15.19;100.00
24666;BME280;29726;53.532;-1.478;2023-04-06T07:45:12;99923.53;;;15.21;100.00
24666;BME280;29726;53.532;-1.478;2023-04-06T07:48:19;99914.59;;;15.17;100.00
24666;BME280;29726;53.532;-1.478;2023-04-06T07:51:24;99927.88;;;15.22;100.00
24666;BME280;29726;53.532;-1.478;2023-04-06T07:54:34;99937.06;;;15.23;100.00
24666;BME280;29726;53.532;-1.478;2023-04-06T07:57:34;99928.66;;;15.23;100.00
24666;BME280;29726;53.532;-1.478;2023-04-06T08:00:31;99930.16;;;15.24;100.00
24666;BME280;29726;53.532;-1.478;2023-04-06T08:03:38;99935.03;;;15.23;100.00
24666;BME280;29726;53.532;-1.478;2023-04-06T08:06:27;99918.94;;;15.24;100.00
24666;BME280;29726;53.532;-1.478;2023-04-06T08:09:39;99917.41;;;15.23;100.00
24666;BME280;29726;53.532;-1.478;2023-04-06T08:12:28;99924.81;;;15.26;100.00
24666;BME280;29726;53.532;-1.478;2023-04-06T08:15:36;99931.94;;;15.27;100.00
24666;BME280;29726;53.532;-1.478;2023-04-06T08:18:28;99930.69;;;15.28;100.00
24666;BME280;29726;53.532;-1.478;2023-04-06T08:21:27;99933.78;;;15.30;100.00
24666;BME280;29726;53.532;-1.478;2023-04-06T08:24:12;99929.91;;;15.27;100.00
24666;BME280;29726;53.532;-1.478;2023-04-06T08:26:58;99917.16;;;15.32;100.00
24666;BME280;29726;53.532;-1.478;2023-04-06T08:29:49;99910.47;;;15.40;100.00
24666;BME280;29726;53.532;-1.478;2023-04-06T08:32:36;99898.97;;;15.44;100.00
24666;BME280;29726;53.532;-1.478;2023-04-06T08:35:30;99915.06;;;15.49;100.00
24666;BME280;29726;53.532;-1.478;2023-04-06T08:38:58;99913.00;;;15.55;100.00
24666;BME280;29726;53.532;-1.478;2023-04-06T08:42:09;99905.59;;;15.57;100.00
24666;BME280;29726;53.532;-1.478;2023-04-06T08:45:03;99921.38;;;15.66;100.00
24666;BME280;29726;53.532;-1.478;2023-04-06T08:47:53;99934.47;;;15.69;100.00
24666;BME280;29726;53.532;-1.478;2023-04-06T08:50:44;99936.97;;;15.72;100.00
24666;BME280;29726;53.532;-1.478;2023-04-06T08:53:29;99946.47;;;15.75;100.00
24666;BME280;29726;53.532;-1.478;2023-04-06T08:56:19;99952.56;;;15.79;100.00
24666;BME280;29726;53.532;-1.478;2023-04-06T08:59:09;99943.63;;;15.80;100.00
24666;BME280;29726;53.532;-1.478;2023-04-06T09:02:39;99956.66;;;15.83;100.00
24666;BME280;29726;53.532;-1.478;2023-04-06T09:05:53;99962.53;;;15.85;100.00
24666;BME280;29726;53.532;-1.478;2023-04-06T09:08:40;99943.09;;;15.82;100.00
24666;BME280;29726;53.532;-1.478;2023-04-06T09:11:49;99962.25;;;15.89;100.00
24666;BME280;29726;53.532;-1.478;2023-04-06T09:14:37;99957.16;;;15.93;100.00
24666;BME280;29726;53.532;-1.478;2023-04-06T09:17:26;99971.47;;;15.95;100.00
24666;BME280;29726;53.532;-1.478;2023-04-06T09:20:13;99969.41;;;15.95;100.00
24666;BME280;29726;53.532;-1.478;2023-04-06T09:23:02;99969.41;;;16.01;100.00
24666;BME280;29726;53.532;-1.478;2023-04-06T09:26:17;99984.50;;;16.03;100.00
24666;BME280;29726;53.532;-1.478;2023-04-06T09:29:06;99978.88;;;16.03;100.00
24666;BME280;29726;53.532;-1.478;2023-04-06T09:32:09;99995.72;;;16.09;100.00
24666;BME280;29726;53.532;-1.478;2023-04-06T09:35:17;99991.13;;;16.11;100.00
24666;BME280;29726;53.532;-1.478;2023-04-06T09:38:15;99967.84;;;16.05;100.00
24666;BME280;29726;53.532;-1.478;2023-04-06T09:41:04;100000.84;;;16.16;100.00
24666;BME280;29726;53.532;-1.478;2023-04-06T09:44:22;99995.16;;;16.21;100.00
24666;BME280;29726;53.532;-1.478;2023-04-06T09:47:14;99984.91;;;16.24;100.00
24666;BME280;29726;53.532;-1.478;2023-04-06T09:50:04;100009.72;;;16.31;100.00
24666;BME280;29726;53.532;-1.478;2023-04-06T09:52:51;100007.69;;;16.37;100.00
24666;BME280;29726;53.532;-1.478;2023-04-06T09:55:42;99997.66;;;16.41;100.00
24666;BME280;29726;53.532;-1.478;2023-04-06T09:58:42;100002.00;;;16.48;100.00
24666;BME280;29726;53.532;-1.478;2023-04-06T10:01:37;99995.78;;;16.55;100.00
24666;BME280;29726;53.532;-1.478;2023-04-06T10:04:53;100003.19;;;16.63;100.00
24666;BME280;29726;53.532;-1.478;2023-04-06T10:07:57;99998.53;;;16.71;100.00
24666;BME280;29726;53.532;-1.478;2023-04-06T10:10:46;99983.66;;;16.71;100.00
24666;BME280;29726;53.532;-1.478;2023-04-06T10:13:55;100004.31;;;16.89;100.00
24666;BME280;29726;53.532;-1.478;2023-04-06T10:17:19;100010.16;;;16.97;100.00
24666;BME280;29726;53.532;-1.478;2023-04-06T10:24:07;100015.69;;;17.13;100.00
24666;BME280;29726;53.532;-1.478;2023-04-06T10:27:04;100030.97;;;17.23;100.00
24666;BME280;29726;53.532;-1.478;2023-04-06T10:29:51;100021.69;;;17.28;100.00
24666;BME280;29726;53.532;-1.478;2023-04-06T10:32:37;100033.22;;;17.36;100.00
24666;BME280;29726;53.532;-1.478;2023-04-06T10:35:24;100042.94;;;17.40;100.00
24666;BME280;29726;53.532;-1.478;2023-04-06T10:38:32;100036.47;;;17.45;100.00
24666;BME280;29726;53.532;-1.478;2023-04-06T10:41:42;100033.66;;;17.45;100.00
24666;BME280;29726;53.532;-1.478;2023-04-06T10:44:43;100055.59;;;17.58;100.00
24666;BME280;29726;53.532;-1.478;2023-04-06T10:47:41;100049.91;;;17.63;100.00
24666;BME280;29726;53.532;-1.478;2023-04-06T10:51:13;100051.63;;;17.72;100.00
24666;BME280;29726;53.532;-1.478;2023-04-06T10:54:01;100061.59;;;17.78;100.00
24666;BME280;29726;53.532;-1.478;2023-04-06T10:57:29;100049.72;;;17.85;100.00
24666;BME280;29726;53.532;-1.478;2023-04-06T11:00:21;100047.34;;;17.89;100.00
24666;BME280;29726;53.532;-1.478;2023-04-06T11:03:46;100055.22;;;17.96;100.00
24666;BME280;29726;53.532;-1.478;2023-04-06T11:06:33;100056.72;;;18.03;100.00
24666;BME280;29726;53.532;-1.478;2023-04-06T11:09:26;100065.38;;;18.10;100.00
24666;BME280;29726;53.532;-1.478;2023-04-06T11:12:36;100064.78;;;18.17;100.00
24666;BME280;29726;53.532;-1.478;2023-04-06T11:15:24;100073.44;;;18.25;100.00
24666;BME280;29726;53.532;-1.478;2023-04-06T11:18:11;100074.94;;;18.31;100.00
24666;BME280;29726;53.532;-1.478;2023-04-06T11:20:59;100075.09;;;18.39;100.00
24666;BME280;29726;53.532;-1.478;2023-04-06T11:24:13;100085.06;;;18.45;100.00
24666;BME280;29726;53.532;-1.478;2023-04-06T11:27:03;100060.81;;;18.49;100.00
24666;BME280;29726;53.532;-1.478;2023-04-06T11:29:54;100071.22;;;18.60;100.00
24666;BME280;29726;53.532;-1.478;2023-04-06T11:33:01;100070.72;;;18.61;100.00
24666;BME280;29726;53.532;-1.478;2023-04-06T11:35:47;100082.88;;;18.75;100.00
24666;BME280;29726;53.532;-1.478;2023-04-06T11:38:40;100086.63;;;18.83;100.00
24666;BME280;29726;53.532;-1.478;2023-04-06T11:42:02;100077.78;;;18.92;100.00
24666;BME280;29726;53.532;-1.478;2023-04-06T11:44:51;100077.91;;;18.99;100.00
24666;BME280;29726;53.532;-1.478;2023-04-06T11:47:36;100071.25;;;18.97;100.00
24666;BME280;29726;53.532;-1.478;2023-04-06T11:50:21;100075.22;;;19.07;100.00
24666;BME280;29726;53.532;-1.478;2023-04-06T11:53:05;100093.63;;;19.19;100.00
24666;BME280;29726;53.532;-1.478;2023-04-06T11:55:49;100102.47;;;19.28;100.00
24666;BME280;29726;53.532;-1.478;2023-04-06T11:58:34;100093.88;;;19.34;100.00
24666;BME280;29726;53.532;-1.478;2023-04-06T12:01:18;100093.06;;;19.39;100.00
24666;BME280;29726;53.532;-1.478;2023-04-06T12:04:02;100088.59;;;19.43;100.00
24666;BME280;29726;53.532;-1.478;2023-04-06T12:06:47;100104.34;;;19.57;100.00
24666;BME280;29726;53.532;-1.478;2023-04-06T12:09:32;100100.13;;;19.64;100.00
24666;BME280;29726;53.532;-1.478;2023-04-06T12:12:16;100091.28;;;19.67;100.00
24666;BME280;29726;53.532;-1.478;2023-04-06T12:15:00;100098.31;;;19.79;100.00
24666;BME280;29726;53.532;-1.478;2023-04-06T12:17:44;100104.63;;;19.85;100.00
24666;BME280;29726;53.532;-1.478;2023-04-06T12:20:28;100101.94;;;19.93;100.00
24666;BME280;29726;53.532;-1.478;2023-04-06T12:23:12;100117.53;;;19.99;100.00
24666;BME280;29726;53.532;-1.478;2023-04-06T12:25:56;100122.91;;;20.03;100.00
24666;BME280;29726;53.532;-1.478;2023-04-06T12:28:40;100119.97;;;20.08;100.00
24666;BME280;29726;53.532;-1.478;2023-04-06T12:31:24;100140.47;;;20.14;100.00
24666;BME280;29726;53.532;-1.478;2023-04-06T12:34:10;100144.63;;;20.13;100.00
24666;BME280;29726;53.532;-1.478;2023-04-06T12:36:54;100138.72;;;20.11;100.00
24666;BME280;29726;53.532;-1.478;2023-04-06T12:39:38;100159.22;;;20.17;100.00
24666;BME280;29726;53.532;-1.478;2023-04-06T12:42:22;100151.94;;;20.22;100.00
24666;BME280;29726;53.532;-1.478;2023-04-06T12:45:07;100147.38;;;20.19;100.00
24666;BME280;29726;53.532;-1.478;2023-04-06T12:47:51;100145.31;;;20.19;100.00
24666;BME280;29726;53.532;-1.478;2023-04-06T12:50:35;100153.59;;;20.30;100.00
24666;BME280;29726;53.532;-1.478;2023-04-06T12:53:19;100171.06;;;20.34;100.00
24666;BME280;29726;53.532;-1.478;2023-04-06T12:56:14;100191.34;;;20.38;100.00
24666;BME280;29726;53.532;-1.478;2023-04-06T12:58:59;100194.94;;;20.38;100.00
24666;BME280;29726;53.532;-1.478;2023-04-06T13:01:43;100195.69;;;20.39;100.00
24666;BME280;29726;53.532;-1.478;2023-04-06T13:04:28;100203.69;;;20.40;100.00
24666;BME280;29726;53.532;-1.478;2023-04-06T13:07:12;100181.31;;;20.37;100.00
24666;BME280;29726;53.532;-1.478;2023-04-06T13:09:56;100196.91;;;20.43;100.00
24666;BME280;29726;53.532;-1.478;2023-04-06T13:12:39;100200.53;;;20.44;100.00
24666;BME280;29726;53.532;-1.478;2023-04-06T13:15:23;100207.25;;;20.41;100.00
24666;BME280;29726;53.532;-1.478;2023-04-06T13:18:08;100217.22;;;20.47;100.00
24666;BME280;29726;53.532;-1.478;2023-04-06T13:20:52;100219.59;;;20.43;100.00
24666;BME280;29726;53.532;-1.478;2023-04-06T13:23:39;100184.56;;;20.28;100.00
24666;BME280;29726;53.532;-1.478;2023-04-06T13:26:24;100201.84;;;20.43;100.00
24666;BME280;29726;53.532;-1.478;2023-04-06T13:29:09;100221.03;;;20.50;100.00
24666;BME280;29726;53.532;-1.478;2023-04-06T13:31:53;100210.56;;;20.45;99.67
24666;BME280;29726;53.532;-1.478;2023-04-06T13:34:37;100224.63;;;20.50;99.49
24666;BME280;29726;53.532;-1.478;2023-04-06T13:37:20;100222.25;;;20.54;99.45
24666;BME280;29726;53.532;-1.478;2023-04-06T13:40:05;100221.16;;;20.57;99.91
24666;BME280;29726;53.532;-1.478;2023-04-06T13:42:49;100219.09;;;20.58;99.52
24666;BME280;29726;53.532;-1.478;2023-04-06T13:45:34;100190.81;;;20.39;99.83
24666;BME280;29726;53.532;-1.478;2023-04-06T13:48:18;100223.66;;;20.61;99.47
24666;BME280;29726;53.532;-1.478;2023-04-06T13:51:13;100232.63;;;20.65;98.58
24666;BME280;29726;53.532;-1.478;2023-04-06T13:53:57;100233.28;;;20.71;98.36
24666;BME280;29726;53.532;-1.478;2023-04-06T13:56:41;100239.94;;;20.73;97.98
24666;BME280;29726;53.532;-1.478;2023-04-06T13:59:31;100237.09;;;20.73;97.76
24666;BME280;29726;53.532;-1.478;2023-04-06T14:02:16;100247.25;;;20.82;97.69
24666;BME280;29726;53.532;-1.478;2023-04-06T14:04:59;100222.59;;;20.77;97.39
24666;BME280;29726;53.532;-1.478;2023-04-06T14:07:43;100225.66;;;20.79;97.40
24666;BME280;29726;53.532;-1.478;2023-04-06T14:10:28;100255.72;;;20.87;97.13
24666;BME280;29726;53.532;-1.478;2023-04-06T14:13:12;100250.25;;;20.89;96.98
24666;BME280;29726;53.532;-1.478;2023-04-06T14:15:56;100261.06;;;20.91;96.48
24666;BME280;29726;53.532;-1.478;2023-04-06T14:18:41;100261.06;;;20.91;95.58
24666;BME280;29726;53.532;-1.478;2023-04-06T14:21:26;100262.03;;;20.93;95.27
24666;BME280;29726;53.532;-1.478;2023-04-06T14:24:11;100265.44;;;20.92;95.23
24666;BME280;29726;53.532;-1.478;2023-04-06T14:26:55;100264.66;;;20.91;94.89
24666;BME280;29726;53.532;-1.478;2023-04-06T14:29:40;100264.97;;;20.88;94.50
24666;BME280;29726;53.532;-1.478;2023-04-06T14:32:24;100284.31;;;20.89;94.35
24666;BME280;29726;53.532;-1.478;2023-04-06T14:35:09;100274.56;;;20.85;94.39
24666;BME280;29726;53.532;-1.478;2023-04-06T14:37:53;100276.88;;;20.86;94.46
24666;BME280;29726;53.532;-1.478;2023-04-06T14:40:37;100239.94;;;20.60;93.62
24666;BME280;29726;53.532;-1.478;2023-04-06T14:43:21;100290.50;;;20.88;93.35
24666;BME280;29726;53.532;-1.478;2023-04-06T14:46:05;100276.94;;;20.81;92.83
24666;BME280;29726;53.532;-1.478;2023-04-06T14:48:55;100288.03;;;20.84;93.34
24666;BME280;29726;53.532;-1.478;2023-04-06T14:51:40;100244.31;;;20.61;93.27
24666;BME280;29726;53.532;-1.478;2023-04-06T14:54:24;100284.94;;;20.82;93.02